sensor_id;sensor_type;location;lat;lon;timestamp;temperature;humidity
70851;DHT22;58475;49.662;9.636;2023-02-28T00:02:14;-0.85;82.74
70851;DHT22;58475;49.662;9.636;2023-02-28T00:04:42;-0.93;82.23
70851;DHT22;58475;49.662;9.636;2023-02-28T00:07:08;-0.96;82.46
70851;DHT22;58475;49.662;9.636;2023-02-28T00:09:33;-0.99;82.53
70851;DHT22;58475;49.662;9.636;2023-02-28T00:11:59;-0.99;82.48
70851;DHT22;58475;49.662;9.636;2023-02-28T00:14:24;-0.95;82.46
70851;DHT22;58475;49.662;9.636;2023-02-28T00:16:50;-0.96;82.49
70851;DHT22;58475;49.662;9.636;2023-02-28T00:19:15;-1.01;82.48
70851;DHT22;58475;49.662;9.636;2023-02-28T00:21:40;-1.00;82.73
70851;DHT22;58475;49.662;9.636;2023-02-28T00:24:07;-0.99;82.80
70851;DHT22;58475;49.662;9.636;2023-02-28T00:26:32;-0.97;82.61
70851;DHT22;58475;49.662;9.636;2023-02-28T00:28:57;-0.93;82.86
70851;DHT22;58475;49.662;9.636;2023-02-28T00:31:23;-0.96;82.72
70851;DHT22;58475;49.662;9.636;2023-02-28T00:33:48;-0.96;82.83
70851;DHT22;58475;49.662;9.636;2023-02-28T00:36:14;-1.01;82.91
70851;DHT22;58475;49.662;9.636;2023-02-28T00:38:40;-1.00;82.94
70851;DHT22;58475;49.662;9.636;2023-02-28T00:41:07;-1.00;82.96
70851;DHT22;58475;49.662;9.636;2023-02-28T00:43:37;-1.07;82.39
70851;DHT22;58475;49.662;9.636;2023-02-28T00:46:03;-1.03;83.00
70851;DHT22;58475;49.662;9.636;2023-02-28T00:48:29;-1.00;82.65
70851;DHT22;58475;49.662;9.636;2023-02-28T00:50:54;-1.00;82.97
70851;DHT22;58475;49.662;9.636;2023-02-28T00:53:20;-1.01;82.27
70851;DHT22;58475;49.662;9.636;2023-02-28T00:55:45;-1.03;82.98
70851;DHT22;58475;49.662;9.636;2023-02-28T00:58:11;-1.04;82.86
70851;DHT22;58475;49.662;9.636;2023-02-28T01:00:36;-1.13;82.30
70851;DHT22;58475;49.662;9.636;2023-02-28T01:03:02;-1.08;83.05
70851;DHT22;58475;49.662;9.636;2023-02-28T01:05:27;-1.06;83.08
70851;DHT22;58475;49.662;9.636;2023-02-28T01:07:52;-1.08;82.91
70851;DHT22;58475;49.662;9.636;2023-02-28T01:10:18;-1.08;82.97
70851;DHT22;58475;49.662;9.636;2023-02-28T01:12:43;-1.13;82.49
70851;DHT22;58475;49.662;9.636;2023-02-28T01:15:10;-1.14;82.97
70851;DHT22;58475;49.662;9.636;2023-02-28T01:17:36;-1.11;83.11
70851;DHT22;58475;49.662;9.636;2023-02-28T01:20:02;-1.10;82.97
70851;DHT22;58475;49.662;9.636;2023-02-28T01:22:28;-1.10;83.29
70851;DHT22;58475;49.662;9.636;2023-02-28T01:24:53;-1.10;83.31
70851;DHT22;58475;49.662;9.636;2023-02-28T01:27:19;-1.08;83.28
70851;DHT22;58475;49.662;9.636;2023-02-28T01:29:44;-1.18;82.60
70851;DHT22;58475;49.662;9.636;2023-02-28T01:32:10;-1.18;83.25
70851;DHT22;58475;49.662;9.636;2023-02-28T01:34:35;-1.18;83.25
70851;DHT22;58475;49.662;9.636;2023-02-28T01:37:03;-1.16;83.21
70851;DHT22;58475;49.662;9.636;2023-02-28T01:39:29;-1.11;83.38
70851;DHT22;58475;49.662;9.636;2023-02-28T01:41:55;-1.10;83.10
70851;DHT22;58475;49.662;9.636;2023-02-28T01:47:34;-1.20;83.03
70851;DHT22;58475;49.662;9.636;2023-02-28T01:50:02;-1.14;83.26
70851;DHT22;58475;49.662;9.636;2023-02-28T01:52:30;-1.17;83.04
70851;DHT22;58475;49.662;9.636;2023-02-28T01:54:58;-1.23;83.11
70851;DHT22;58475;49.662;9.636;2023-02-28T01:57:29;-1.23;83.03
70851;DHT22;58475;49.662;9.636;2023-02-28T01:59:57;-1.26;82.92
70851;DHT22;58475;49.662;9.636;2023-02-28T02:02:25;-1.24;83.27
70851;DHT22;58475;49.662;9.636;2023-02-28T02:04:55;-1.20;83.28
70851;DHT22;58475;49.662;9.636;2023-02-28T02:07:23;-1.30;82.58
70851;DHT22;58475;49.662;9.636;2023-02-28T02:09:50;-1.24;83.54
70851;DHT22;58475;49.662;9.636;2023-02-28T02:12:29;-1.28;82.99
70851;DHT22;58475;49.662;9.636;2023-02-28T02:15:03;-1.21;83.37
70851;DHT22;58475;49.662;9.636;2023-02-28T02:17:41;-1.23;83.15
70851;DHT22;58475;49.662;9.636;2023-02-28T02:23:23;-1.27;82.86
70851;DHT22;58475;49.662;9.636;2023-02-28T02:26:01;-1.24;83.13
70851;DHT22;58475;49.662;9.636;2023-02-28T02:28:52;-1.28;83.50
70851;DHT22;58475;49.662;9.636;2023-02-28T02:36:50;-1.24;83.63
70851;DHT22;58475;49.662;9.636;2023-02-28T02:39:47;-1.28;83.39
70851;DHT22;58475;49.662;9.636;2023-02-28T02:42:24;-1.26;83.39
70851;DHT22;58475;49.662;9.636;2023-02-28T02:45:00;-1.26;83.53
70851;DHT22;58475;49.662;9.636;2023-02-28T02:47:28;-1.35;83.38
70851;DHT22;58475;49.662;9.636;2023-02-28T02:49:57;-1.27;83.45
70851;DHT22;58475;49.662;9.636;2023-02-28T02:52:33;-1.26;83.40
70851;DHT22;58475;49.662;9.636;2023-02-28T02:55:00;-1.31;83.43
70851;DHT22;58475;49.662;9.636;2023-02-28T02:57:35;-1.31;83.42
70851;DHT22;58475;49.662;9.636;2023-02-28T03:00:04;-1.31;83.44
70851;DHT22;58475;49.662;9.636;2023-02-28T03:02:32;-1.33;83.45
70851;DHT22;58475;49.662;9.636;2023-02-28T03:05:01;-1.33;83.44
70851;DHT22;58475;49.662;9.636;2023-02-28T03:07:27;-1.30;83.67
70851;DHT22;58475;49.662;9.636;2023-02-28T03:09:57;-1.35;83.57
70851;DHT22;58475;49.662;9.636;2023-02-28T03:12:29;-1.31;83.64
70851;DHT22;58475;49.662;9.636;2023-02-28T03:15:16;-1.35;83.68
70851;DHT22;58475;49.662;9.636;2023-02-28T03:18:03;-1.34;83.75
70851;DHT22;58475;49.662;9.636;2023-02-28T03:23:19;-1.33;83.75
70851;DHT22;58475;49.662;9.636;2023-02-28T03:26:11;-1.37;83.56
70851;DHT22;58475;49.662;9.636;2023-02-28T03:34:10;-1.34;84.00
70851;DHT22;58475;49.662;9.636;2023-02-28T03:36:40;-1.45;83.58
70851;DHT22;58475;49.662;9.636;2023-02-28T03:39:14;-1.44;83.89
70851;DHT22;58475;49.662;9.636;2023-02-28T03:41:49;-1.41;83.78
70851;DHT22;58475;49.662;9.636;2023-02-28T03:44:24;-1.38;83.81
70851;DHT22;58475;49.662;9.636;2023-02-28T03:50:11;-1.48;83.32
70851;DHT22;58475;49.662;9.636;2023-02-28T03:52:48;-1.47;83.44
70851;DHT22;58475;49.662;9.636;2023-02-28T03:55:16;-1.48;83.87
70851;DHT22;58475;49.662;9.636;2023-02-28T03:57:59;-1.43;83.83
70851;DHT22;58475;49.662;9.636;2023-02-28T04:00:34;-1.44;83.92
70851;DHT22;58475;49.662;9.636;2023-02-28T04:03:00;-1.45;83.80
70851;DHT22;58475;49.662;9.636;2023-02-28T04:05:26;-1.47;84.05
70851;DHT22;58475;49.662;9.636;2023-02-28T04:07:52;-1.50;84.00
70851;DHT22;58475;49.662;9.636;2023-02-28T04:10:19;-1.48;83.96
70851;DHT22;58475;49.662;9.636;2023-02-28T04:12:45;-1.48;84.02
70851;DHT22;58475;49.662;9.636;2023-02-28T04:15:10;-1.48;83.98
70851;DHT22;58475;49.662;9.636;2023-02-28T04:17:36;-1.48;83.89
70851;DHT22;58475;49.662;9.636;2023-02-28T04:20:02;-1.51;83.84
70851;DHT22;58475;49.662;9.636;2023-02-28T04:22:28;-1.47;84.16
70851;DHT22;58475;49.662;9.636;2023-02-28T04:24:54;-1.54;83.92
70851;DHT22;58475;49.662;9.636;2023-02-28T04:27:20;-1.51;84.15
70851;DHT22;58475;49.662;9.636;2023-02-28T04:29:46;-1.54;84.13
70851;DHT22;58475;49.662;9.636;2023-02-28T04:32:11;-1.51;84.20
70851;DHT22;58475;49.662;9.636;2023-02-28T04:34:37;-1.50;84.32
70851;DHT22;58475;49.662;9.636;2023-02-28T04:37:02;-1.52;84.31
70851;DHT22;58475;49.662;9.636;2023-02-28T04:39:28;-1.54;84.17
70851;DHT22;58475;49.662;9.636;2023-02-28T04:41:55;-1.52;84.47
70851;DHT22;58475;49.662;9.636;2023-02-28T04:44:21;-1.48;84.53
70851;DHT22;58475;49.662;9.636;2023-02-28T04:46:47;-1.50;84.31
70851;DHT22;58475;49.662;9.636;2023-02-28T04:49:13;-1.55;84.26
70851;DHT22;58475;49.662;9.636;2023-02-28T04:51:39;-1.55;84.37
70851;DHT22;58475;49.662;9.636;2023-02-28T04:54:05;-1.52;84.33
70851;DHT22;58475;49.662;9.636;2023-02-28T04:56:31;-1.55;84.42
70851;DHT22;58475;49.662;9.636;2023-02-28T04:58:57;-1.52;84.37
70851;DHT22;58475;49.662;9.636;2023-02-28T05:01:25;-1.55;84.43
70851;DHT22;58475;49.662;9.636;2023-02-28T05:03:53;-1.55;84.43
70851;DHT22;58475;49.662;9.636;2023-02-28T05:06:19;-1.55;84.48
70851;DHT22;58475;49.662;9.636;2023-02-28T05:08:45;-1.58;84.71
70851;DHT22;58475;49.662;9.636;2023-02-28T05:11:32;-1.55;84.57
70851;DHT22;58475;49.662;9.636;2023-02-28T05:14:06;-1.61;84.42
70851;DHT22;58475;49.662;9.636;2023-02-28T05:16:32;-1.58;84.37
70851;DHT22;58475;49.662;9.636;2023-02-28T05:18:58;-1.59;84.48
70851;DHT22;58475;49.662;9.636;2023-02-28T05:21:32;-1.59;84.50
70851;DHT22;58475;49.662;9.636;2023-02-28T05:24:06;-1.55;84.59
70851;DHT22;58475;49.662;9.636;2023-02-28T05:26:34;-1.61;84.56
70851;DHT22;58475;49.662;9.636;2023-02-28T05:29:00;-1.61;84.45
70851;DHT22;58475;49.662;9.636;2023-02-28T05:31:25;-1.62;84.35
70851;DHT22;58475;49.662;9.636;2023-02-28T05:33:51;-1.58;84.51
70851;DHT22;58475;49.662;9.636;2023-02-28T05:36:16;-1.54;84.32
70851;DHT22;58475;49.662;9.636;2023-02-28T05:38:42;-1.54;84.64
70851;DHT22;58475;49.662;9.636;2023-02-28T05:41:09;-1.58;84.19
70851;DHT22;58475;49.662;9.636;2023-02-28T05:43:35;-1.59;84.46
70851;DHT22;58475;49.662;9.636;2023-02-28T05:46:08;-1.61;84.51
70851;DHT22;58475;49.662;9.636;2023-02-28T05:48:35;-1.55;84.57
70851;DHT22;58475;49.662;9.636;2023-02-28T05:51:01;-1.57;84.63
70851;DHT22;58475;49.662;9.636;2023-02-28T05:53:28;-1.58;84.70
70851;DHT22;58475;49.662;9.636;2023-02-28T05:55:53;-1.55;84.53
70851;DHT22;58475;49.662;9.636;2023-02-28T05:58:19;-1.55;84.77
70851;DHT22;58475;49.662;9.636;2023-02-28T06:00:45;-1.58;84.43
70851;DHT22;58475;49.662;9.636;2023-02-28T06:03:10;-1.62;84.36
70851;DHT22;58475;49.662;9.636;2023-02-28T06:05:36;-1.57;84.63
70851;DHT22;58475;49.662;9.636;2023-02-28T06:08:01;-1.54;84.71
70851;DHT22;58475;49.662;9.636;2023-02-28T06:10:27;-1.54;84.67
70851;DHT22;58475;49.662;9.636;2023-02-28T06:12:52;-1.54;84.54
70851;DHT22;58475;49.662;9.636;2023-02-28T06:15:18;-1.58;84.47
70851;DHT22;58475;49.662;9.636;2023-02-28T06:17:44;-1.62;84.39
70851;DHT22;58475;49.662;9.636;2023-02-28T06:20:11;-1.57;84.60
70851;DHT22;58475;49.662;9.636;2023-02-28T06:22:38;-1.54;84.73
70851;DHT22;58475;49.662;9.636;2023-02-28T06:25:05;-1.54;84.50
70851;DHT22;58475;49.662;9.636;2023-02-28T06:27:32;-1.51;84.85
70851;DHT22;58475;49.662;9.636;2023-02-28T06:29:57;-1.45;84.88
70851;DHT22;58475;49.662;9.636;2023-02-28T06:32:23;-1.48;84.65
70851;DHT22;58475;49.662;9.636;2023-02-28T06:34:48;-1.50;84.86
70851;DHT22;58475;49.662;9.636;2023-02-28T06:37:14;-1.48;84.71
70851;DHT22;58475;49.662;9.636;2023-02-28T06:39:39;-1.47;84.78
70851;DHT22;58475;49.662;9.636;2023-02-28T06:42:05;-1.45;84.89
70851;DHT22;58475;49.662;9.636;2023-02-28T06:44:30;-1.51;84.08
70851;DHT22;58475;49.662;9.636;2023-02-28T06:47:01;-1.50;84.65
70851;DHT22;58475;49.662;9.636;2023-02-28T06:49:31;-1.44;84.81
70851;DHT22;58475;49.662;9.636;2023-02-28T06:51:56;-1.50;84.28
70851;DHT22;58475;49.662;9.636;2023-02-28T06:54:22;-1.47;84.79
70851;DHT22;58475;49.662;9.636;2023-02-28T06:56:47;-1.41;84.85
70851;DHT22;58475;49.662;9.636;2023-02-28T06:59:13;-1.41;84.59
70851;DHT22;58475;49.662;9.636;2023-02-28T07:01:39;-1.40;84.55
70851;DHT22;58475;49.662;9.636;2023-02-28T07:04:05;-1.43;84.72
70851;DHT22;58475;49.662;9.636;2023-02-28T07:06:31;-1.41;84.40
70851;DHT22;58475;49.662;9.636;2023-02-28T07:08:56;-1.38;84.76
70851;DHT22;58475;49.662;9.636;2023-02-28T07:11:23;-1.38;84.75
70851;DHT22;58475;49.662;9.636;2023-02-28T07:13:51;-1.35;84.39
70851;DHT22;58475;49.662;9.636;2023-02-28T07:16:17;-1.37;84.52
70851;DHT22;58475;49.662;9.636;2023-02-28T07:18:43;-1.34;84.62
70851;DHT22;58475;49.662;9.636;2023-02-28T07:21:10;-1.34;84.61
70851;DHT22;58475;49.662;9.636;2023-02-28T07:23:36;-1.30;84.51
70851;DHT22;58475;49.662;9.636;2023-02-28T07:26:03;-1.33;84.41
70851;DHT22;58475;49.662;9.636;2023-02-28T07:28:29;-1.33;84.60
70851;DHT22;58475;49.662;9.636;2023-02-28T07:30:54;-1.27;84.57
70851;DHT22;58475;49.662;9.636;2023-02-28T07:33:20;-1.30;83.87
70851;DHT22;58475;49.662;9.636;2023-02-28T07:35:45;-1.28;84.55
70851;DHT22;58475;49.662;9.636;2023-02-28T07:38:11;-1.28;84.68
70851;DHT22;58475;49.662;9.636;2023-02-28T07:40:38;-1.28;84.50
70851;DHT22;58475;49.662;9.636;2023-02-28T07:43:04;-1.24;84.54
70851;DHT22;58475;49.662;9.636;2023-02-28T07:45:30;-1.31;83.78
70851;DHT22;58475;49.662;9.636;2023-02-28T07:47:56;-1.40;84.01
70851;DHT22;58475;49.662;9.636;2023-02-28T07:50:22;-1.34;84.37
70851;DHT22;58475;49.662;9.636;2023-02-28T07:52:47;-1.30;84.02
70851;DHT22;58475;49.662;9.636;2023-02-28T07:55:13;-1.27;84.30
70851;DHT22;58475;49.662;9.636;2023-02-28T07:57:39;-1.20;84.24
70851;DHT22;58475;49.662;9.636;2023-02-28T08:00:07;-1.24;84.19
70851;DHT22;58475;49.662;9.636;2023-02-28T08:02:37;-1.24;84.33
70851;DHT22;58475;49.662;9.636;2023-02-28T08:05:02;-1.17;83.88
70851;DHT22;58475;49.662;9.636;2023-02-28T08:07:28;-1.17;84.37
70851;DHT22;58475;49.662;9.636;2023-02-28T08:09:54;-1.20;84.24
70851;DHT22;58475;49.662;9.636;2023-02-28T08:12:19;-1.24;83.78
70851;DHT22;58475;49.662;9.636;2023-02-28T08:14:45;-1.24;84.14
70851;DHT22;58475;49.662;9.636;2023-02-28T08:17:10;-1.20;84.52
70851;DHT22;58475;49.662;9.636;2023-02-28T08:19:36;-1.21;83.70
70851;DHT22;58475;49.662;9.636;2023-02-28T08:22:01;-1.20;84.21
70851;DHT22;58475;49.662;9.636;2023-02-28T08:24:27;-1.18;84.65
70851;DHT22;58475;49.662;9.636;2023-02-28T08:26:52;-1.08;84.70
70851;DHT22;58475;49.662;9.636;2023-02-28T08:29:18;-1.07;84.70
70851;DHT22;58475;49.662;9.636;2023-02-28T08:31:43;-1.01;84.60
70851;DHT22;58475;49.662;9.636;2023-02-28T08:34:11;-0.99;84.37
70851;DHT22;58475;49.662;9.636;2023-02-28T08:36:37;-0.99;84.53
70851;DHT22;58475;49.662;9.636;2023-02-28T08:39:03;-0.97;84.61
70851;DHT22;58475;49.662;9.636;2023-02-28T08:41:29;-0.87;84.68
70851;DHT22;58475;49.662;9.636;2023-02-28T08:43:55;-0.96;84.42
70851;DHT22;58475;49.662;9.636;2023-02-28T08:46:20;-0.92;84.75
70851;DHT22;58475;49.662;9.636;2023-02-28T08:48:46;-0.93;84.20
70851;DHT22;58475;49.662;9.636;2023-02-28T08:51:16;-0.99;83.89
70851;DHT22;58475;49.662;9.636;2023-02-28T08:53:43;-1.00;83.73
70851;DHT22;58475;49.662;9.636;2023-02-28T08:56:12;-0.97;84.14
70851;DHT22;58475;49.662;9.636;2023-02-28T08:58:37;-0.89;84.02
70851;DHT22;58475;49.662;9.636;2023-02-28T09:01:16;-0.89;83.77
70851;DHT22;58475;49.662;9.636;2023-02-28T09:03:42;-0.86;84.29
70851;DHT22;58475;49.662;9.636;2023-02-28T09:06:09;-0.80;84.44
70851;DHT22;58475;49.662;9.636;2023-02-28T09:08:35;-0.76;84.35
70851;DHT22;58475;49.662;9.636;2023-02-28T09:11:00;-0.72;84.37
70851;DHT22;58475;49.662;9.636;2023-02-28T09:13:27;-0.72;84.10
70851;DHT22;58475;49.662;9.636;2023-02-28T09:15:53;-0.68;84.30
70851;DHT22;58475;49.662;9.636;2023-02-28T09:18:19;-0.65;84.37
70851;DHT22;58475;49.662;9.636;2023-02-28T09:20:46;-0.69;83.39
70851;DHT22;58475;49.662;9.636;2023-02-28T09:23:12;-0.75;84.41
70851;DHT22;58475;49.662;9.636;2023-02-28T09:25:45;-0.66;83.89
70851;DHT22;58475;49.662;9.636;2023-02-28T09:28:10;-0.70;83.52
70851;DHT22;58475;49.662;9.636;2023-02-28T09:30:36;-0.79;83.46
70851;DHT22;58475;49.662;9.636;2023-02-28T09:33:02;-0.73;84.30
70851;DHT22;58475;49.662;9.636;2023-02-28T09:35:27;-0.69;83.91
70851;DHT22;58475;49.662;9.636;2023-02-28T09:37:53;-0.69;83.51
70851;DHT22;58475;49.662;9.636;2023-02-28T09:40:20;-0.66;84.23
70851;DHT22;58475;49.662;9.636;2023-02-28T09:42:49;-0.65;83.51
70851;DHT22;58475;49.662;9.636;2023-02-28T09:45:26;-0.64;84.30
70851;DHT22;58475;49.662;9.636;2023-02-28T09:47:56;-0.58;83.89
70851;DHT22;58475;49.662;9.636;2023-02-28T09:52:52;-0.52;84.04
70851;DHT22;58475;49.662;9.636;2023-02-28T09:55:26;-0.51;83.65
70851;DHT22;58475;49.662;9.636;2023-02-28T10:02:12;-0.42;83.96
70851;DHT22;58475;49.662;9.636;2023-02-28T10:07:32;-0.32;83.50
70851;DHT22;58475;49.662;9.636;2023-02-28T10:10:06;-0.41;82.86
70851;DHT22;58475;49.662;9.636;2023-02-28T10:12:39;-0.32;83.93
70851;DHT22;58475;49.662;9.636;2023-02-28T10:15:14;-0.24;83.86
70851;DHT22;58475;49.662;9.636;2023-02-28T10:17:41;-0.32;82.68
70851;DHT22;58475;49.662;9.636;2023-02-28T10:20:12;-0.24;83.55
70851;DHT22;58475;49.662;9.636;2023-02-28T10:25:38;-0.13;83.51
70851;DHT22;58475;49.662;9.636;2023-02-28T10:28:14;-0.13;83.34
70851;DHT22;58475;49.662;9.636;2023-02-28T10:30:46;-0.04;83.74
70851;DHT22;58475;49.662;9.636;2023-02-28T10:33:29;-0.11;82.11
70851;DHT22;58475;49.662;9.636;2023-02-28T10:35:55;-0.08;83.59
70851;DHT22;58475;49.662;9.636;2023-02-28T10:38:26;-0.07;83.29
70851;DHT22;58475;49.662;9.636;2023-02-28T10:41:06;-0.07;83.06
70851;DHT22;58475;49.662;9.636;2023-02-28T10:43:32;0.02;83.07
70851;DHT22;58475;49.662;9.636;2023-02-28T10:48:44;0.11;82.98
70851;DHT22;58475;49.662;9.636;2023-02-28T10:51:18;0.02;81.75
70851;DHT22;58475;49.662;9.636;2023-02-28T10:53:52;0.04;82.59
70851;DHT22;58475;49.662;9.636;2023-02-28T10:56:24;0.09;82.35
70851;DHT22;58475;49.662;9.636;2023-02-28T10:59:02;0.13;82.23
70851;DHT22;58475;49.662;9.636;2023-02-28T11:01:43;0.10;81.90
70851;DHT22;58475;49.662;9.636;2023-02-28T11:07:00;0.20;82.94
70851;DHT22;58475;49.662;9.636;2023-02-28T11:09:34;0.28;83.23
70851;DHT22;58475;49.662;9.636;2023-02-28T11:12:02;0.38;83.58
70851;DHT22;58475;49.662;9.636;2023-02-28T11:14:31;0.36;82.76
70851;DHT22;58475;49.662;9.636;2023-02-28T11:17:11;0.37;82.55
70851;DHT22;58475;49.662;9.636;2023-02-28T11:19:44;0.45;83.38
70851;DHT22;58475;49.662;9.636;2023-02-28T11:22:17;0.47;83.32
70851;DHT22;58475;49.662;9.636;2023-02-28T11:24:46;0.55;83.49
70851;DHT22;58475;49.662;9.636;2023-02-28T11:29:57;0.62;83.85
70851;DHT22;58475;49.662;9.636;2023-02-28T11:32:30;0.68;83.89
70851;DHT22;58475;49.662;9.636;2023-02-28T11:37:27;0.72;83.43
70851;DHT22;58475;49.662;9.636;2023-02-28T11:39:53;0.74;82.83
70851;DHT22;58475;49.662;9.636;2023-02-28T11:50:27;0.86;81.71
70851;DHT22;58475;49.662;9.636;2023-02-28T11:53:06;0.84;82.07
70851;DHT22;58475;49.662;9.636;2023-02-28T11:55:39;0.82;81.80
70851;DHT22;58475;49.662;9.636;2023-02-28T12:03:50;0.82;80.58
70851;DHT22;58475;49.662;9.636;2023-02-28T12:12:58;1.09;82.40
70851;DHT22;58475;49.662;9.636;2023-02-28T12:20:43;1.23;81.91
70851;DHT22;58475;49.662;9.636;2023-02-28T12:28:38;1.36;81.49
70851;DHT22;58475;49.662;9.636;2023-02-28T12:31:20;1.37;81.46
70851;DHT22;58475;49.662;9.636;2023-02-28T12:34:18;1.42;81.10
70851;DHT22;58475;49.662;9.636;2023-02-28T12:36:47;1.47;81.36
70851;DHT22;58475;49.662;9.636;2023-02-28T12:39:36;1.51;82.32
70851;DHT22;58475;49.662;9.636;2023-02-28T12:42:05;1.60;82.28
70851;DHT22;58475;49.662;9.636;2023-02-28T12:47:23;1.58;80.90
70851;DHT22;58475;49.662;9.636;2023-02-28T12:49:54;1.60;80.78
70851;DHT22;58475;49.662;9.636;2023-02-28T12:55:00;1.63;80.76
70851;DHT22;58475;49.662;9.636;2023-02-28T12:57:36;1.65;80.68
70851;DHT22;58475;49.662;9.636;2023-02-28T13:13:04;1.67;80.02
70851;DHT22;58475;49.662;9.636;2023-02-28T13:15:29;1.70;79.85
70851;DHT22;58475;49.662;9.636;2023-02-28T13:17:58;1.60;79.94
70851;DHT22;58475;49.662;9.636;2023-02-28T13:20:33;1.63;80.15
70851;DHT22;58475;49.662;9.636;2023-02-28T13:23:00;1.61;79.69
70851;DHT22;58475;49.662;9.636;2023-02-28T13:27:58;1.58;79.36
70851;DHT22;58475;49.662;9.636;2023-02-28T13:38:48;1.67;78.35
70851;DHT22;58475;49.662;9.636;2023-02-28T13:47:43;1.81;78.25
70851;DHT22;58475;49.662;9.636;2023-02-28T14:06:56;2.13;78.59
70851;DHT22;58475;49.662;9.636;2023-02-28T14:09:28;2.15;77.34
70851;DHT22;58475;49.662;9.636;2023-02-28T14:11:54;2.11;77.04
70851;DHT22;58475;49.662;9.636;2023-02-28T14:17:12;2.18;77.34
70851;DHT22;58475;49.662;9.636;2023-02-28T14:19:38;2.18;77.52
70851;DHT22;58475;49.662;9.636;2023-02-28T14:32:35;2.33;76.29
70851;DHT22;58475;49.662;9.636;2023-02-28T14:37:56;2.36;76.13
70851;DHT22;58475;49.662;9.636;2023-02-28T14:40:29;2.47;77.07
70851;DHT22;58475;49.662;9.636;2023-02-28T14:43:00;2.50;76.11
70851;DHT22;58475;49.662;9.636;2023-02-28T14:45:29;2.64;77.14
70851;DHT22;58475;49.662;9.636;2023-02-28T14:47:56;2.72;76.41
70851;DHT22;58475;49.662;9.636;2023-02-28T14:50:34;2.70;75.88
70851;DHT22;58475;49.662;9.636;2023-02-28T14:53:01;2.65;75.73
70851;DHT22;58475;49.662;9.636;2023-02-28T14:55:31;2.76;76.78
70851;DHT22;58475;49.662;9.636;2023-02-28T14:57:59;2.80;76.26
70851;DHT22;58475;49.662;9.636;2023-02-28T15:00:30;2.87;77.27
70851;DHT22;58475;49.662;9.636;2023-02-28T15:02:58;2.85;75.99
70851;DHT22;58475;49.662;9.636;2023-02-28T15:05:34;2.88;76.27
70851;DHT22;58475;49.662;9.636;2023-02-28T15:08:15;2.88;76.16
70851;DHT22;58475;49.662;9.636;2023-02-28T15:10:44;2.97;75.36
70851;DHT22;58475;49.662;9.636;2023-02-28T15:13:14;3.00;77.01
70851;DHT22;58475;49.662;9.636;2023-02-28T15:15:53;3.08;76.62
70851;DHT22;58475;49.662;9.636;2023-02-28T15:20:51;3.16;75.73
70851;DHT22;58475;49.662;9.636;2023-02-28T15:23:18;3.09;76.06
70851;DHT22;58475;49.662;9.636;2023-02-28T15:25:44;3.00;74.97
70851;DHT22;58475;49.662;9.636;2023-02-28T15:28:17;3.04;75.50
70851;DHT22;58475;49.662;9.636;2023-02-28T15:30:52;3.09;75.81
70851;DHT22;58475;49.662;9.636;2023-02-28T15:33:20;3.01;75.07
70851;DHT22;58475;49.662;9.636;2023-02-28T15:35:46;3.08;75.25
70851;DHT22;58475;49.662;9.636;2023-02-28T15:38:25;3.28;76.72
70851;DHT22;58475;49.662;9.636;2023-02-28T15:40:57;3.26;76.30
70851;DHT22;58475;49.662;9.636;2023-02-28T15:43:29;3.31;75.96
70851;DHT22;58475;49.662;9.636;2023-02-28T15:48:43;3.48;76.56
70851;DHT22;58475;49.662;9.636;2023-02-28T15:51:21;3.56;76.66
70851;DHT22;58475;49.662;9.636;2023-02-28T15:53:50;3.60;76.54
70851;DHT22;58475;49.662;9.636;2023-02-28T15:56:31;3.67;76.57
70851;DHT22;58475;49.662;9.636;2023-02-28T15:58:59;3.69;76.05
70851;DHT22;58475;49.662;9.636;2023-02-28T16:01:27;3.74;77.25
70851;DHT22;58475;49.662;9.636;2023-02-28T16:03:57;3.79;76.66
70851;DHT22;58475;49.662;9.636;2023-02-28T16:06:32;3.79;76.88
70851;DHT22;58475;49.662;9.636;2023-02-28T16:08:58;3.77;77.17
70851;DHT22;58475;49.662;9.636;2023-02-28T16:11:23;3.74;76.62
70851;DHT22;58475;49.662;9.636;2023-02-28T16:13:50;3.74;76.94
70851;DHT22;58475;49.662;9.636;2023-02-28T16:16:22;3.74;77.02
70851;DHT22;58475;49.662;9.636;2023-02-28T16:18:47;3.79;77.09
70851;DHT22;58475;49.662;9.636;2023-02-28T16:21:13;3.74;76.77
70851;DHT22;58475;49.662;9.636;2023-02-28T16:23:38;3.77;76.73
70851;DHT22;58475;49.662;9.636;2023-02-28T16:26:05;3.76;77.24
70851;DHT22;58475;49.662;9.636;2023-02-28T16:28:33;3.76;77.61
70851;DHT22;58475;49.662;9.636;2023-02-28T16:31:00;3.73;77.46
70851;DHT22;58475;49.662;9.636;2023-02-28T16:33:28;3.72;77.41
70851;DHT22;58475;49.662;9.636;2023-02-28T16:35:54;3.70;77.56
70851;DHT22;58475;49.662;9.636;2023-02-28T16:38:20;3.70;77.76
70851;DHT22;58475;49.662;9.636;2023-02-28T16:43:54;3.63;77.84
70851;DHT22;58475;49.662;9.636;2023-02-28T16:46:27;3.58;77.94
70851;DHT22;58475;49.662;9.636;2023-02-28T16:48:55;3.58;78.04
70851;DHT22;58475;49.662;9.636;2023-02-28T16:51:20;3.51;78.20
70851;DHT22;58475;49.662;9.636;2023-02-28T16:53:46;3.49;78.13
70851;DHT22;58475;49.662;9.636;2023-02-28T16:56:19;3.45;78.21
70851;DHT22;58475;49.662;9.636;2023-02-28T16:58:45;3.42;78.30
70851;DHT22;58475;49.662;9.636;2023-02-28T17:01:12;3.38;78.19
70851;DHT22;58475;49.662;9.636;2023-02-28T17:03:37;3.32;78.27
70851;DHT22;58475;49.662;9.636;2023-02-28T17:06:03;3.29;78.44
70851;DHT22;58475;49.662;9.636;2023-02-28T17:08:30;3.26;78.49
70851;DHT22;58475;49.662;9.636;2023-02-28T17:10:57;3.21;78.66
70851;DHT22;58475;49.662;9.636;2023-02-28T17:13:23;3.18;78.66
70851;DHT22;58475;49.662;9.636;2023-02-28T17:15:48;3.16;78.59
70851;DHT22;58475;49.662;9.636;2023-02-28T17:18:15;3.15;78.66
70851;DHT22;58475;49.662;9.636;2023-02-28T17:20:41;3.09;78.78
70851;DHT22;58475;49.662;9.636;2023-02-28T17:23:07;3.08;78.77
70851;DHT22;58475;49.662;9.636;2023-02-28T17:25:33;3.04;78.71
70851;DHT22;58475;49.662;9.636;2023-02-28T17:27:58;3.03;78.90
70851;DHT22;58475;49.662;9.636;2023-02-28T17:30:26;3.01;78.91
70851;DHT22;58475;49.662;9.636;2023-02-28T17:32:53;2.97;78.91
70851;DHT22;58475;49.662;9.636;2023-02-28T17:35:18;2.94;78.99
70851;DHT22;58475;49.662;9.636;2023-02-28T17:37:45;2.93;79.13
70851;DHT22;58475;49.662;9.636;2023-02-28T17:40:16;2.90;79.11
70851;DHT22;58475;49.662;9.636;2023-02-28T17:42:42;2.88;79.10
70851;DHT22;58475;49.662;9.636;2023-02-28T17:45:08;2.85;79.24
70851;DHT22;58475;49.662;9.636;2023-02-28T17:47:33;2.83;79.28
70851;DHT22;58475;49.662;9.636;2023-02-28T17:49:59;2.79;79.21
70851;DHT22;58475;49.662;9.636;2023-02-28T17:52:24;2.77;79.28
70851;DHT22;58475;49.662;9.636;2023-02-28T17:54:50;2.74;79.28
70851;DHT22;58475;49.662;9.636;2023-02-28T17:57:15;2.73;79.38
70851;DHT22;58475;49.662;9.636;2023-02-28T17:59:41;2.70;79.37
70851;DHT22;58475;49.662;9.636;2023-02-28T18:02:09;2.68;79.38
70851;DHT22;58475;49.662;9.636;2023-02-28T18:04:36;2.65;79.46
70851;DHT22;58475;49.662;9.636;2023-02-28T18:07:01;2.63;79.49
70851;DHT22;58475;49.662;9.636;2023-02-28T18:09:28;2.63;79.43
70851;DHT22;58475;49.662;9.636;2023-02-28T18:11:54;2.58;79.53
70851;DHT22;58475;49.662;9.636;2023-02-28T18:14:22;2.57;79.35
70851;DHT22;58475;49.662;9.636;2023-02-28T18:16:48;2.53;79.50
70851;DHT22;58475;49.662;9.636;2023-02-28T18:19:14;2.53;79.46
70851;DHT22;58475;49.662;9.636;2023-02-28T18:21:42;2.50;79.46